Time;durP1;ratioP1;P1;durP2;ratioP2;P2;SDS_P1;SDS_P2;PMS_P1;PMS_P2;Temp;Humidity;BMP_temperature;BMP_pressure;BME280_temperature;BME280_humidity;BME280_pressure;Samples;Min_cycle;Max_cycle;Signal;HPM_P1;HPM_P2
2023/01/03 00:00:40;;;;;;;;;;;;;;;;;;4829559;29;19931;-88
2023/01/03 00:03:06;;;;;;;;;;;;;;;;;;4846102;29;19921;-88
2023/01/03 00:05:35;;;;;;;;;;;;;;;;;;4845680;29;19921;-86
2023/01/03 00:08:00;;;;;;;;;;;;;;;;;;4845999;29;19924;-87
2023/01/03 00:10:25;;;;;;;;;;;;;;;;;;4845939;29;20011;-86
2023/01/03 00:12:51;;;;;;;;;;;;;;;;;;4845950;29;20387;-86
2023/01/03 00:15:16;;;;;;;;;;;;;;;;;;4829288;29;20522;-86
2023/01/03 00:17:42;;;;;;;;;;;;;;;;;;4829320;29;19921;-86
2023/01/03 00:20:08;;;;;;;;;;;;;;;;;;4845816;29;19925;-88
2023/01/03 00:22:34;;;;;;;;;;;;;;;;;;4829067;29;19921;-86
2023/01/03 00:24:59;;;;;;;;;;;;;;;;;;4845979;29;19921;-86
2023/01/03 00:27:25;;;;;;;;;;;;;;;;;;4829115;29;20329;-86
2023/01/03 00:29:51;;;;;;;;;;;;;;;;;;4829119;29;19927;-85
2023/01/03 00:32:16;;;;;;;;;;;;;;;;;;4828480;29;19949;-86
2023/01/03 00:34:42;;;;;;;;;;;;;;;;;;4829088;29;19924;-86
2023/01/03 00:37:08;;;;;;;;;;;;;;;;;;4829069;29;20289;-85
2023/01/03 00:39:33;;;;;;;;;;;;;;;;;;4845557;29;19920;-86
2023/01/03 00:41:58;;;;;;;;;;;;;;;;;;4845540;29;19921;-85
2023/01/03 00:44:24;;;;;;;;;;;;;;;;;;4845447;29;19921;-86
2023/01/03 00:46:49;;;;;;;;;;;;;;;;;;4845544;29;20314;-86
2023/01/03 00:49:14;;;;;;;;;;;;;;;;;;4845386;29;19920;-86
2023/01/03 00:51:40;;;;;;;;;;;;;;;;;;4828843;29;19982;-87
2023/01/03 00:54:06;;;;;;;;;;;;;;;;;;4845272;29;20370;-88
2023/01/03 00:56:33;;;;;;;;;;;;;;;;;;4828825;29;20031;-86
2023/01/03 00:59:00;;;;;;;;;;;;;;;;;;4828323;29;19956;-87
2023/01/03 01:01:29;;;;;;;;;;;;;;;;;;4845193;29;19972;-87
2023/01/03 01:03:58;;;;;;;;;;;;;;;;;;4828453;29;19921;-85
2023/01/03 01:06:44;;;;;;;;;;;;;;;;;;4844871;29;19920;-86
2023/01/03 01:09:11;;;;;;;;;;;;;;;;;;4827828;29;19923;-86
2023/01/03 01:11:36;;;;;;;;;;;;;;;;;;4828334;29;19920;-86
2023/01/03 01:14:02;;;;;;;;;;;;;;;;;;4828285;29;19917;-86
2023/01/03 01:16:28;;;;;;;;;;;;;;;;;;4844730;29;20027;-87
2023/01/03 01:18:54;;;;;;;;;;;;;;;;;;4828143;29;19917;-85
2023/01/03 01:21:22;;;;;;;;;;;;;;;;;;4844574;29;19943;-88
2023/01/03 01:23:48;;;;;;;;;;;;;;;;;;4828032;29;19932;-88
2023/01/03 01:26:15;;;;;;;;;;;;;;;;;;4828115;29;20373;-87
2023/01/03 01:28:41;;;;;;;;;;;;;;;;;;4850031;29;19920;-86
2023/01/03 01:31:07;;;;;;;;;;;;;;;;;;4857185;29;19973;-87
2023/01/03 01:33:33;;;;;;;;;;;;;;;;;;4867999;29;19940;-86
2023/01/03 01:36:04;;;;;;;;;;;;;;;;;;4852839;29;19916;-88
2023/01/03 01:38:29;;;;;;;;;;;;;;;;;;4855732;29;20133;-86
2023/01/03 01:40:55;;;;;;;;;;;;;;;;;;4845009;29;20010;-86
2023/01/03 01:46:18;;;;;;;;;;;;;;;;;;4844515;29;19927;-89
2023/01/03 01:48:44;;;;;;;;;;;;;;;;;;4844264;29;20341;-86
2023/01/03 01:51:10;;;;;;;;;;;;;;;;;;4844512;29;19927;-87
2023/01/03 01:53:38;;;;;;;;;;;;;;;;;;4827795;29;19928;-86
2023/01/03 01:56:15;;;;;;;;;;;;;;;;;;4844117;29;19992;-86
2023/01/03 01:58:41;;;;;;;;;;;;;;;;;;4844070;29;19931;-86
2023/01/03 02:01:08;;;;;;;;;;;;;;;;;;4843974;29;19920;-89
2023/01/03 02:03:33;;;;;;;;;;;;;;;;;;4844030;29;19935;-87
2023/01/03 02:06:00;;;;;;;;;;;;;;;;;;4843969;29;19984;-86
2023/01/03 02:08:25;;;;;;;;;;;;;;;;;;4844051;29;19927;-87
2023/01/03 02:11:10;;;;;;;;;;;;;;;;;;4843919;29;19996;-86
2023/01/03 02:13:41;;;;;;;;;;;;;;;;;;4843777;29;19928;-86
2023/01/03 02:16:06;;;;;;;;;;;;;;;;;;4842593;29;20400;-88
2023/01/03 02:18:35;;;;;;;;;;;;;;;;;;4843887;29;20017;-86
2023/01/03 02:21:36;;;;;;;;;;;;;;;;;;4842526;29;19928;-87
2023/01/03 02:24:10;;;;;;;;;;;;;;;;;;4805233;29;19921;-87
2023/01/03 02:26:39;;;;;;;;;;;;;;;;;;4838291;29;20354;-86
2023/01/03 02:29:10;;;;;;;;;;;;;;;;;;4842387;29;20011;-87
2023/01/03 02:31:47;;;;;;;;;;;;;;;;;;4843721;29;20366;-86
2023/01/03 02:34:20;;;;;;;;;;;;;;;;;;4827266;29;20023;-88
2023/01/03 02:37:03;;;;;;;;;;;;;;;;;;4843621;29;19920;-88
2023/01/03 02:39:35;;;;;;;;;;;;;;;;;;4843596;29;19954;-86
2023/01/03 02:45:05;;;;;;;;;;;;;;;;;;4843598;29;20277;-88
2023/01/03 02:47:34;;;;;;;;;;;;;;;;;;4827169;29;19924;-85
2023/01/03 02:50:01;;;;;;;;;;;;;;;;;;4827155;29;19943;-86
2023/01/03 02:52:28;;;;;;;;;;;;;;;;;;4843405;29;19921;-86
2023/01/03 02:54:57;;;;;;;;;;;;;;;;;;4842994;29;19920;-87
2023/01/03 02:57:25;;;;;;;;;;;;;;;;;;4843007;29;19961;-87
2023/01/03 02:59:57;;;;;;;;;;;;;;;;;;4842619;29;19968;-85
2023/01/03 03:02:25;;;;;;;;;;;;;;;;;;4825618;29;19942;-86
2023/01/03 03:04:53;;;;;;;;;;;;;;;;;;4842268;29;19926;-87
2023/01/03 03:07:21;;;;;;;;;;;;;;;;;;4825931;29;20019;-86
2023/01/03 03:15:18;;;;;;;;;;;;;;;;;;4842271;29;19924;-86
2023/01/03 03:17:44;;;;;;;;;;;;;;;;;;4825892;29;19928;-85
2023/01/03 03:25:49;;;;;;;;;;;;;;;;;;4842121;29;19970;-86
2023/01/03 03:28:34;;;;;;;;;;;;;;;;;;4842025;29;19920;-86
2023/01/03 03:31:07;;;;;;;;;;;;;;;;;;4842243;29;19921;-86
2023/01/03 03:33:34;;;;;;;;;;;;;;;;;;4842033;29;20282;-87
2023/01/03 03:36:05;;;;;;;;;;;;;;;;;;4825588;29;20004;-90
2023/01/03 03:38:33;;;;;;;;;;;;;;;;;;4842191;29;19941;-86
2023/01/03 03:46:40;;;;;;;;;;;;;;;;;;4842110;29;19928;-87
2023/01/03 03:51:59;;;;;;;;;;;;;;;;;;4842025;29;19928;-87
2023/01/03 03:54:25;;;;;;;;;;;;;;;;;;4841770;29;19929;-85
2023/01/03 03:56:57;;;;;;;;;;;;;;;;;;4757705;29;2018240;-86
2023/01/03 03:59:24;;;;;;;;;;;;;;;;;;4841370;29;20396;-86
2023/01/03 04:01:49;;;;;;;;;;;;;;;;;;4826479;29;20349;-87
2023/01/03 04:04:21;;;;;;;;;;;;;;;;;;4842682;29;19956;-86
2023/01/03 04:06:48;;;;;;;;;;;;;;;;;;4844358;29;20404;-87
2023/01/03 04:09:13;;;;;;;;;;;;;;;;;;4845227;29;19924;-88
2023/01/03 04:11:39;;;;;;;;;;;;;;;;;;4845372;29;19931;-87
2023/01/03 04:14:04;;;;;;;;;;;;;;;;;;4845306;29;19927;-86
2023/01/03 04:16:29;;;;;;;;;;;;;;;;;;4828686;29;20003;-85
2023/01/03 04:18:55;;;;;;;;;;;;;;;;;;4845572;29;20011;-86
2023/01/03 04:21:20;;;;;;;;;;;;;;;;;;4829029;29;19920;-86
2023/01/03 04:23:46;;;;;;;;;;;;;;;;;;4828594;29;19921;-86
2023/01/03 04:26:11;;;;;;;;;;;;;;;;;;4828741;29;20297;-86
2023/01/03 04:28:36;;;;;;;;;;;;;;;;;;4845145;29;20102;-86
2023/01/03 04:31:02;;;;;;;;;;;;;;;;;;4844676;29;20019;-86
2023/01/03 04:33:27;;;;;;;;;;;;;;;;;;4844895;29;19928;-88
2023/01/03 04:35:53;;;;;;;;;;;;;;;;;;4845044;29;19927;-87
2023/01/03 04:38:18;;;;;;;;;;;;;;;;;;4844826;29;19927;-86
2023/01/03 04:40:43;;;;;;;;;;;;;;;;;;4828514;29;19925;-87
2023/01/03 04:45:53;;;;;;;;;;;;;;;;;;4845752;29;19926;-87
2023/01/03 04:48:19;;;;;;;;;;;;;;;;;;4828818;29;19920;-85
2023/01/03 04:50:50;;;;;;;;;;;;;;;;;;4828711;29;20421;-85
2023/01/03 04:53:16;;;;;;;;;;;;;;;;;;4845274;29;20369;-86
2023/01/03 04:55:48;;;;;;;;;;;;;;;;;;4845287;29;19928;-87
2023/01/03 04:58:13;;;;;;;;;;;;;;;;;;4828586;29;20292;-86
2023/01/03 05:00:39;;;;;;;;;;;;;;;;;;4845245;29;19920;-86
2023/01/03 05:03:04;;;;;;;;;;;;;;;;;;4828561;29;20388;-88
2023/01/03 05:05:29;;;;;;;;;;;;;;;;;;4828505;29;19928;-88
2023/01/03 05:07:55;;;;;;;;;;;;;;;;;;4828444;29;19932;-89
2023/01/03 05:10:20;;;;;;;;;;;;;;;;;;4828515;29;19921;-89
2023/01/03 05:12:58;;;;;;;;;;;;;;;;;;4844873;29;20395;-87
2023/01/03 05:15:24;;;;;;;;;;;;;;;;;;4844630;29;19931;-88
2023/01/03 05:17:49;;;;;;;;;;;;;;;;;;4844649;29;19928;-86
2023/01/03 05:25:49;;;;;;;;;;;;;;;;;;4850589;29;19931;-88
2023/01/03 05:28:15;;;;;;;;;;;;;;;;;;4840600;29;19925;-87
2023/01/03 05:30:40;;;;;;;;;;;;;;;;;;4867643;29;19960;-87
2023/01/03 05:33:05;;;;;;;;;;;;;;;;;;4851697;29;19995;-87
2023/01/03 05:35:31;;;;;;;;;;;;;;;;;;4833975;29;19959;-88
2023/01/03 05:37:59;;;;;;;;;;;;;;;;;;4847601;29;19924;-87
2023/01/03 05:40:25;;;;;;;;;;;;;;;;;;4831064;29;19928;-88
2023/01/03 05:42:50;;;;;;;;;;;;;;;;;;4844710;29;19921;-87
2023/01/03 05:45:16;;;;;;;;;;;;;;;;;;4827821;29;19977;-88
2023/01/03 05:47:41;;;;;;;;;;;;;;;;;;4827780;29;19945;-86
2023/01/03 05:50:07;;;;;;;;;;;;;;;;;;4827844;29;20028;-88
2023/01/03 05:52:32;;;;;;;;;;;;;;;;;;4844429;29;19986;-87
2023/01/03 05:54:57;;;;;;;;;;;;;;;;;;4827805;29;19924;-87
2023/01/03 05:57:23;;;;;;;;;;;;;;;;;;4844128;29;20305;-87
2023/01/03 05:59:48;;;;;;;;;;;;;;;;;;4844235;29;19963;-87
2023/01/03 06:02:14;;;;;;;;;;;;;;;;;;4844068;29;19968;-87
2023/01/03 06:04:39;;;;;;;;;;;;;;;;;;4827538;29;20282;-88
2023/01/03 06:07:05;;;;;;;;;;;;;;;;;;4843913;29;19928;-89
2023/01/03 06:09:30;;;;;;;;;;;;;;;;;;4843881;29;19921;-87
2023/01/03 06:11:56;;;;;;;;;;;;;;;;;;4827450;29;19921;-87
2023/01/03 06:14:21;;;;;;;;;;;;;;;;;;4850431;23;19935;-89
2023/01/03 06:19:30;;;;;;;;;;;;;;;;;;4843970;29;20038;-88
2023/01/03 06:21:56;;;;;;;;;;;;;;;;;;4827126;29;19950;-89
2023/01/03 06:24:21;;;;;;;;;;;;;;;;;;4826823;29;19969;-88
2023/01/03 06:26:47;;;;;;;;;;;;;;;;;;4827251;29;19920;-89
2023/01/03 06:29:12;;;;;;;;;;;;;;;;;;4843267;29;19963;-88
2023/01/03 06:31:37;;;;;;;;;;;;;;;;;;4843656;29;19960;-87
2023/01/03 06:34:03;;;;;;;;;;;;;;;;;;4827180;29;20277;-88
2023/01/03 06:36:30;;;;;;;;;;;;;;;;;;4827094;29;19924;-88
2023/01/03 06:38:57;;;;;;;;;;;;;;;;;;4826865;29;20011;-88
2023/01/03 06:41:22;;;;;;;;;;;;;;;;;;4827102;29;19920;-87
2023/01/03 06:43:47;;;;;;;;;;;;;;;;;;4827057;29;19920;-88
2023/01/03 06:54:27;;;;;;;;;;;;;;;;;;4843318;29;19927;-87
2023/01/03 06:56:54;;;;;;;;;;;;;;;;;;4826706;29;19920;-89
2023/01/03 06:59:19;;;;;;;;;;;;;;;;;;4826650;29;20023;-88
2023/01/03 07:01:45;;;;;;;;;;;;;;;;;;4843131;29;19964;-87
2023/01/03 07:04:11;;;;;;;;;;;;;;;;;;4843166;29;20387;-87
2023/01/03 07:06:37;;;;;;;;;;;;;;;;;;4843163;29;20027;-88
2023/01/03 07:09:02;;;;;;;;;;;;;;;;;;4826990;29;19916;-87
2023/01/03 07:11:28;;;;;;;;;;;;;;;;;;4826711;29;19920;-87
2023/01/03 07:13:59;;;;;;;;;;;;;;;;;;4826321;29;19931;-88
2023/01/03 07:16:27;;;;;;;;;;;;;;;;;;4842966;29;19968;-89
2023/01/03 07:18:52;;;;;;;;;;;;;;;;;;4842105;29;19928;-88
2023/01/03 07:21:18;;;;;;;;;;;;;;;;;;4843252;29;19920;-89
2023/01/03 07:23:44;;;;;;;;;;;;;;;;;;4826431;29;19920;-88
2023/01/03 07:26:09;;;;;;;;;;;;;;;;;;4842908;29;19921;-89
2023/01/03 07:28:35;;;;;;;;;;;;;;;;;;4826630;29;19920;-88
2023/01/03 07:31:01;;;;;;;;;;;;;;;;;;4826487;29;19920;-90
2023/01/03 07:33:26;;;;;;;;;;;;;;;;;;4826389;29;19920;-89
2023/01/03 07:35:52;;;;;;;;;;;;;;;;;;4842870;29;19920;-88
2023/01/03 07:38:17;;;;;;;;;;;;;;;;;;4842849;29;19924;-89
2023/01/03 07:40:43;;;;;;;;;;;;;;;;;;4844593;29;19920;-89
2023/01/03 07:45:53;;;;;;;;;;;;;;;;;;4846477;29;20011;-90
2023/01/03 07:48:18;;;;;;;;;;;;;;;;;;4829431;29;20015;-89
2023/01/03 07:50:44;;;;;;;;;;;;;;;;;;4829653;29;19921;-88
2023/01/03 07:53:15;;;;;;;;;;;;;;;;;;4846239;29;19920;-88
2023/01/03 07:55:41;;;;;;;;;;;;;;;;;;4829665;29;19928;-89
2023/01/03 07:58:07;;;;;;;;;;;;;;;;;;4830027;29;19920;-89
2023/01/03 08:00:32;;;;;;;;;;;;;;;;;;4846157;29;19927;-90
2023/01/03 08:02:57;;;;;;;;;;;;;;;;;;4846138;29;19927;-89
2023/01/03 08:05:23;;;;;;;;;;;;;;;;;;4845652;29;20422;-88
2023/01/03 08:07:49;;;;;;;;;;;;;;;;;;4845989;29;20019;-90
2023/01/03 08:13:17;;;;;;;;;;;;;;;;;;4846493;29;20391;-89
2023/01/03 08:15:44;;;;;;;;;;;;;;;;;;4845711;29;19925;-88
2023/01/03 08:18:10;;;;;;;;;;;;;;;;;;4829221;29;20270;-90
2023/01/03 08:20:36;;;;;;;;;;;;;;;;;;4829212;29;19928;-90
2023/01/03 08:23:01;;;;;;;;;;;;;;;;;;4829333;29;19921;-90
2023/01/03 08:25:26;;;;;;;;;;;;;;;;;;4845849;29;19921;-90
2023/01/03 08:27:52;;;;;;;;;;;;;;;;;;4845805;29;19920;-90
2023/01/03 08:30:17;;;;;;;;;;;;;;;;;;4845770;29;20274;-90
2023/01/03 08:32:43;;;;;;;;;;;;;;;;;;4845664;29;20353;-90
2023/01/03 08:35:10;;;;;;;;;;;;;;;;;;4845543;29;19924;-90
2023/01/03 08:37:35;;;;;;;;;;;;;;;;;;4828945;29;20429;-88
2023/01/03 08:40:02;;;;;;;;;;;;;;;;;;4844264;29;19920;-92
2023/01/03 08:42:28;;;;;;;;;;;;;;;;;;4829019;29;19952;-90
2023/01/03 08:44:59;;;;;;;;;;;;;;;;;;4845315;29;19927;-91
2023/01/03 08:47:24;;;;;;;;;;;;;;;;;;4845589;29;19921;-90
2023/01/03 08:49:49;;;;;;;;;;;;;;;;;;4845417;29;19924;-91
2023/01/03 08:52:15;;;;;;;;;;;;;;;;;;4828232;29;19950;-91
2023/01/03 08:54:40;;;;;;;;;;;;;;;;;;4845319;29;19916;-90
2023/01/03 08:57:06;;;;;;;;;;;;;;;;;;4845491;29;19920;-91
2023/01/03 08:59:31;;;;;;;;;;;;;;;;;;4828684;29;19965;-91
2023/01/03 09:02:00;;;;;;;;;;;;;;;;;;4845285;29;19917;-91
2023/01/03 09:04:26;;;;;;;;;;;;;;;;;;4845164;29;19925;-91
2023/01/03 09:06:51;;;;;;;;;;;;;;;;;;4829190;29;19928;-91
2023/01/03 09:09:17;;;;;;;;;;;;;;;;;;4829379;29;19916;-90
2023/01/03 09:11:42;;;;;;;;;;;;;;;;;;4845515;29;19943;-91
2023/01/03 09:14:07;;;;;;;;;;;;;;;;;;4845266;29;19924;-91
2023/01/03 09:16:33;;;;;;;;;;;;;;;;;;4844863;29;20011;-89
2023/01/03 09:18:58;;;;;;;;;;;;;;;;;;4855381;29;19995;-91
2023/01/03 09:21:24;;;;;;;;;;;;;;;;;;4835832;29;19925;-89
2023/01/03 09:23:50;;;;;;;;;;;;;;;;;;4850351;29;19911;-88
2023/01/03 09:26:15;;;;;;;;;;;;;;;;;;4852119;29;19988;-89
2023/01/03 09:28:41;;;;;;;;;;;;;;;;;;4846139;29;20015;-91
2023/01/03 09:31:06;;;;;;;;;;;;;;;;;;4828407;29;19997;-93
2023/01/03 09:33:31;;;;;;;;;;;;;;;;;;4837158;29;19971;-89
2023/01/03 09:35:57;;;;;;;;;;;;;;;;;;4832955;29;20030;-90
2023/01/03 09:38:22;;;;;;;;;;;;;;;;;;4844176;29;19920;-92
2023/01/03 09:40:55;;;;;;;;;;;;;;;;;;4828231;29;19924;-91
2023/01/03 09:43:21;;;;;;;;;;;;;;;;;;4828215;29;19920;-92
2023/01/03 09:45:55;;;;;;;;;;;;;;;;;;4844627;29;19921;-92
2023/01/03 09:48:32;;;;;;;;;;;;;;;;;;4843638;29;19925;-91
2023/01/03 09:50:58;;;;;;;;;;;;;;;;;;4827981;29;20379;-91
2023/01/03 10:04:43;;;;;;;;;;;;;;;;;;4806986;29;19928;-90
2023/01/03 10:07:32;;;;;;;;;;;;;;;;;;4807646;29;19921;-90
2023/01/03 10:10:10;;;;;;;;;;;;;;;;;;4820073;29;20397;-90
2023/01/03 10:12:44;;;;;;;;;;;;;;;;;;4820936;29;19925;-90
2023/01/03 10:15:17;;;;;;;;;;;;;;;;;;4792099;29;20318;-91
2023/01/03 10:17:42;;;;;;;;;;;;;;;;;;4821435;29;19925;-91
2023/01/03 10:20:20;;;;;;;;;;;;;;;;;;4821409;29;19997;-92
2023/01/03 10:22:47;;;;;;;;;;;;;;;;;;4791223;29;19921;-91
2023/01/03 10:25:14;;;;;;;;;;;;;;;;;;4807603;29;19928;-90
2023/01/03 10:27:47;;;;;;;;;;;;;;;;;;4807146;29;19921;-91
2023/01/03 10:30:17;;;;;;;;;;;;;;;;;;4807072;29;19921;-92
2023/01/03 10:32:54;;;;;;;;;;;;;;;;;;4790937;29;19921;-91
2023/01/03 10:35:22;;;;;;;;;;;;;;;;;;4821208;29;19931;-90
2023/01/03 10:37:50;;;;;;;;;;;;;;;;;;4805970;29;19924;-92
2023/01/03 10:40:15;;;;;;;;;;;;;;;;;;4807073;29;19928;-91
2023/01/03 10:42:41;;;;;;;;;;;;;;;;;;4784148;29;19925;-91
2023/01/03 10:45:14;;;;;;;;;;;;;;;;;;4806412;29;19980;-92
2023/01/03 10:47:39;;;;;;;;;;;;;;;;;;4790040;29;19972;-91
2023/01/03 10:50:05;;;;;;;;;;;;;;;;;;4789421;29;19967;-90
2023/01/03 10:52:37;;;;;;;;;;;;;;;;;;4805324;29;19921;-89
2023/01/03 10:55:09;;;;;;;;;;;;;;;;;;4789191;29;19925;-89
2023/01/03 10:57:47;;;;;;;;;;;;;;;;;;4805444;29;19944;-91
2023/01/03 11:00:25;;;;;;;;;;;;;;;;;;4808006;29;19982;-90
2023/01/03 11:02:50;;;;;;;;;;;;;;;;;;4805585;29;20019;-90
2023/01/03 11:05:17;;;;;;;;;;;;;;;;;;4790559;29;20445;-90
2023/01/03 11:07:43;;;;;;;;;;;;;;;;;;4790193;29;19956;-91
2023/01/03 11:10:14;;;;;;;;;;;;;;;;;;4807884;29;19928;-91
2023/01/03 11:12:41;;;;;;;;;;;;;;;;;;4806671;29;20294;-90
2023/01/03 11:15:17;;;;;;;;;;;;;;;;;;4809456;29;19925;-89
2023/01/03 11:17:54;;;;;;;;;;;;;;;;;;4813877;29;19929;-90
2023/01/03 11:20:20;;;;;;;;;;;;;;;;;;4812154;29;19929;-89
2023/01/03 11:22:54;;;;;;;;;;;;;;;;;;4810835;29;19922;-88
2023/01/03 11:25:23;;;;;;;;;;;;;;;;;;4809756;29;19925;-89
2023/01/03 11:27:58;;;;;;;;;;;;;;;;;;4794468;29;19921;-89
2023/01/03 11:30:42;;;;;;;;;;;;;;;;;;4793786;29;20404;-88
2023/01/03 11:33:26;;;;;;;;;;;;;;;;;;4793739;29;19925;-91
2023/01/03 11:36:05;;;;;;;;;;;;;;;;;;4821656;29;19922;-91
2023/01/03 11:38:40;;;;;;;;;;;;;;;;;;4808008;29;19976;-89
2023/01/03 11:41:24;;;;;;;;;;;;;;;;;;4810938;29;19927;-90
2023/01/03 11:43:58;;;;;;;;;;;;;;;;;;4810895;29;20003;-90
2023/01/03 11:46:23;;;;;;;;;;;;;;;;;;4794448;29;19990;-89
2023/01/03 11:48:49;;;;;;;;;;;;;;;;;;4794152;29;20383;-90
2023/01/03 11:51:17;;;;;;;;;;;;;;;;;;4810100;29;19929;-89
2023/01/03 11:53:53;;;;;;;;;;;;;;;;;;4794052;29;19986;-90
2023/01/03 11:56:30;;;;;;;;;;;;;;;;;;4811465;29;20396;-89
2023/01/03 11:59:11;;;;;;;;;;;;;;;;;;4824896;29;19925;-92
2023/01/03 12:01:56;;;;;;;;;;;;;;;;;;4817664;29;19931;-90
2023/01/03 12:04:28;;;;;;;;;;;;;;;;;;4784053;29;19925;-89
2023/01/03 12:06:54;;;;;;;;;;;;;;;;;;4834372;29;19921;-89
2023/01/03 12:24:57;;;;;;;;;;;;;;;;;;4858449;29;19946;-88
2023/01/03 12:35:56;;;;;;;;;;;;;;;;;;4995123;23;19920;-87
2023/01/03 12:45:37;;;;;;;;;;;;;;;;;;;;;
2023/01/03 12:52:12;;;;;;;;;;;;;;;;;;4731713;30;19930;-87
2023/01/03 12:54:31;;;;;;;;;;;;;;;;;;4727937;30;19934;-87
2023/01/03 13:03:44;;;;;;;;;;;;;;;;;;;;;
2023/01/03 13:12:07;;;;;;;;;;;;;;;;;;4840366;29;19929;-86
2023/01/03 13:31:44;;;;;;;;;;;;;;;;;;4859248;29;20004;-90
2023/01/03 13:44:47;;;;;;;;;;;;;;;;;;4858188;29;19933;-89
2023/01/03 13:52:56;;;;;;;;;;;;;;;;;;4918178;23;20438;-89
2023/01/03 13:55:46;;;;;;;;;;;;;;;;;;4866247;29;19931;-90
2023/01/03 14:03:55;;;;;;;;;;;;;;;;;;4819651;29;20021;-86
2023/01/03 14:12:45;;;;;;;;;;;;;;;;;;4730858;30;19925;-84
2023/01/03 14:18:42;;;;;;;;;;;;;;;;;;4719203;30;20451;-86
2023/01/03 14:27:08;;;;;;;;;;;;;;;;;;4701709;30;19934;-87
2023/01/03 14:32:30;;;;;;;;;;;;;;;;;;5297102;23;19912;-90
2023/01/03 14:34:56;;;;;;;;;;;;;;;;;;4828020;29;19924;-88
2023/01/03 14:37:25;;;;;;;;;;;;;;;;;;4844145;29;19949;-86
2023/01/03 14:39:54;;;;;;;;;;;;;;;;;;4843650;29;19973;-87
2023/01/03 14:42:20;;;;;;;;;;;;;;;;;;4844432;29;20031;-88
2023/01/03 14:44:55;;;;;;;;;;;;;;;;;;4844016;29;19924;-90
2023/01/03 14:47:21;;;;;;;;;;;;;;;;;;4845089;29;19928;-88
2023/01/03 14:49:48;;;;;;;;;;;;;;;;;;4844685;29;19925;-88
2023/01/03 14:52:26;;;;;;;;;;;;;;;;;;4828761;29;19964;-90
2023/01/03 14:54:52;;;;;;;;;;;;;;;;;;4830043;29;20305;-89
2023/01/03 14:57:25;;;;;;;;;;;;;;;;;;4828146;29;19920;-88
2023/01/03 14:59:51;;;;;;;;;;;;;;;;;;4828338;29;20267;-87
2023/01/03 15:02:17;;;;;;;;;;;;;;;;;;4844468;29;19941;-87
2023/01/03 15:04:43;;;;;;;;;;;;;;;;;;4843918;29;19928;-87
2023/01/03 15:07:28;;;;;;;;;;;;;;;;;;4826838;29;19952;-88
2023/01/03 15:10:02;;;;;;;;;;;;;;;;;;4841124;29;19921;-88
2023/01/03 15:12:29;;;;;;;;;;;;;;;;;;4840494;29;20000;-87
2023/01/03 15:14:54;;;;;;;;;;;;;;;;;;4826305;29;20065;-87
2023/01/03 15:17:24;;;;;;;;;;;;;;;;;;4841498;29;19968;-88
2023/01/03 15:19:54;;;;;;;;;;;;;;;;;;4838785;29;20356;-88
2023/01/03 15:22:21;;;;;;;;;;;;;;;;;;4845309;29;20381;-86
2023/01/03 15:24:48;;;;;;;;;;;;;;;;;;4968614;23;19981;-86
2023/01/03 15:27:32;;;;;;;;;;;;;;;;;;4825696;29;19932;-87
2023/01/03 15:30:10;;;;;;;;;;;;;;;;;;4822190;29;19924;-87
2023/01/03 15:32:47;;;;;;;;;;;;;;;;;;4825071;29;19953;-89
2023/01/03 15:35:26;;;;;;;;;;;;;;;;;;4822633;29;19928;-89
2023/01/03 15:37:53;;;;;;;;;;;;;;;;;;4810294;29;19929;-89
2023/01/03 15:40:18;;;;;;;;;;;;;;;;;;4826990;29;19928;-88
2023/01/03 15:45:33;;;;;;;;;;;;;;;;;;4825870;29;19927;-90
2023/01/03 15:47:59;;;;;;;;;;;;;;;;;;4808432;29;19921;-89
2023/01/03 15:50:32;;;;;;;;;;;;;;;;;;4809737;29;19921;-89
2023/01/03 15:52:57;;;;;;;;;;;;;;;;;;4825584;29;19925;-87
2023/01/03 15:55:23;;;;;;;;;;;;;;;;;;4824137;29;20033;-88
2023/01/03 15:57:49;;;;;;;;;;;;;;;;;;4809377;29;19943;-87
2023/01/03 16:00:17;;;;;;;;;;;;;;;;;;4825060;29;20362;-87
2023/01/03 16:02:43;;;;;;;;;;;;;;;;;;4810064;29;19921;-88
2023/01/03 16:05:11;;;;;;;;;;;;;;;;;;4812009;29;19924;-86
2023/01/03 16:07:39;;;;;;;;;;;;;;;;;;4829350;29;19921;-88
2023/01/03 16:10:04;;;;;;;;;;;;;;;;;;4830056;29;19917;-87
2023/01/03 16:12:34;;;;;;;;;;;;;;;;;;4813344;29;20399;-89
2023/01/03 16:15:00;;;;;;;;;;;;;;;;;;4824281;29;19925;-89
2023/01/03 16:17:27;;;;;;;;;;;;;;;;;;4812784;29;19928;-88
2023/01/03 16:19:53;;;;;;;;;;;;;;;;;;4827363;29;20012;-88
2023/01/03 16:22:19;;;;;;;;;;;;;;;;;;4812936;29;20020;-88
2023/01/03 16:24:44;;;;;;;;;;;;;;;;;;4826038;29;19932;-89
2023/01/03 16:27:11;;;;;;;;;;;;;;;;;;4827231;29;19925;-88
2023/01/03 16:29:37;;;;;;;;;;;;;;;;;;4812738;29;19917;-87
2023/01/03 16:32:03;;;;;;;;;;;;;;;;;;4813700;29;20449;-87
2023/01/03 16:34:29;;;;;;;;;;;;;;;;;;4828725;29;19932;-87
2023/01/03 16:36:54;;;;;;;;;;;;;;;;;;4812380;29;19921;-88
2023/01/03 16:39:21;;;;;;;;;;;;;;;;;;4818143;29;19950;-86
2023/01/03 16:44:32;;;;;;;;;;;;;;;;;;4851124;29;19915;-88
2023/01/03 16:46:59;;;;;;;;;;;;;;;;;;4835602;29;19990;-87
2023/01/03 16:49:25;;;;;;;;;;;;;;;;;;4817532;29;19993;-88
2023/01/03 16:51:50;;;;;;;;;;;;;;;;;;4812355;29;19920;-87
2023/01/03 16:54:17;;;;;;;;;;;;;;;;;;4811669;29;20374;-87
2023/01/03 16:56:42;;;;;;;;;;;;;;;;;;4811343;29;19921;-87
2023/01/03 16:59:15;;;;;;;;;;;;;;;;;;4811868;29;19973;-88
2023/01/03 17:01:40;;;;;;;;;;;;;;;;;;4811277;29;19927;-87
2023/01/03 17:04:06;;;;;;;;;;;;;;;;;;4827817;29;19920;-89
2023/01/03 17:06:31;;;;;;;;;;;;;;;;;;4812364;29;19920;-87
2023/01/03 17:08:58;;;;;;;;;;;;;;;;;;4811935;29;19935;-86
2023/01/03 17:11:24;;;;;;;;;;;;;;;;;;4827202;29;19962;-88
2023/01/03 17:13:52;;;;;;;;;;;;;;;;;;4809997;29;20005;-90
2023/01/03 17:16:18;;;;;;;;;;;;;;;;;;4810419;29;20510;-89
2023/01/03 17:18:44;;;;;;;;;;;;;;;;;;4810025;29;20046;-89
2023/01/03 17:21:23;;;;;;;;;;;;;;;;;;4827237;29;19961;-89
2023/01/03 17:23:49;;;;;;;;;;;;;;;;;;4810559;29;19920;-89
2023/01/03 17:26:17;;;;;;;;;;;;;;;;;;4810175;29;20000;-90
2023/01/03 17:31:46;;;;;;;;;;;;;;;;;;5093540;27;19917;-88
2023/01/03 17:34:30;;;;;;;;;;;;;;;;;;5092347;28;19927;-89
2023/01/03 17:36:56;;;;;;;;;;;;;;;;;;5091804;28;19916;-88
2023/01/03 17:39:23;;;;;;;;;;;;;;;;;;5090569;28;19916;-88
2023/01/03 17:44:33;;;;;;;;;;;;;;;;;;5092365;28;20022;-87
2023/01/03 17:50:00;;;;;;;;;;;;;;;;;;5091797;28;20011;-91
2023/01/03 17:52:30;;;;;;;;;;;;;;;;;;5090423;28;19959;-88
2023/01/03 17:54:55;;;;;;;;;;;;;;;;;;5091354;28;20368;-89
2023/01/03 17:57:21;;;;;;;;;;;;;;;;;;5090881;28;19916;-88
2023/01/03 17:59:47;;;;;;;;;;;;;;;;;;5093425;28;20385;-87
2023/01/03 18:02:17;;;;;;;;;;;;;;;;;;5093271;28;19916;-88
2023/01/03 18:04:42;;;;;;;;;;;;;;;;;;5092134;28;20004;-86
2023/01/03 18:07:08;;;;;;;;;;;;;;;;;;5090762;28;19920;-89
2023/01/03 18:09:34;;;;;;;;;;;;;;;;;;5090779;28;19928;-87
2023/01/03 18:11:59;;;;;;;;;;;;;;;;;;5090871;28;19942;-87
2023/01/03 18:14:25;;;;;;;;;;;;;;;;;;5091873;28;20290;-87
2023/01/03 18:16:50;;;;;;;;;;;;;;;;;;5092792;28;19933;-88
2023/01/03 18:19:16;;;;;;;;;;;;;;;;;;5092111;28;19920;-88
2023/01/03 18:21:41;;;;;;;;;;;;;;;;;;5090958;28;19999;-87
2023/01/03 18:24:13;;;;;;;;;;;;;;;;;;5091379;28;19978;-88
2023/01/03 18:26:41;;;;;;;;;;;;;;;;;;5090918;28;19916;-87
2023/01/03 18:29:10;;;;;;;;;;;;;;;;;;5092401;28;20329;-89
2023/01/03 18:31:35;;;;;;;;;;;;;;;;;;5091923;28;19927;-87
2023/01/03 18:34:03;;;;;;;;;;;;;;;;;;5093442;28;19923;-87
2023/01/03 18:36:29;;;;;;;;;;;;;;;;;;5092208;28;19931;-88
2023/01/03 18:39:00;;;;;;;;;;;;;;;;;;5091812;28;19923;-89
2023/01/03 18:41:27;;;;;;;;;;;;;;;;;;5088641;28;19997;-87
2023/01/03 18:43:52;;;;;;;;;;;;;;;;;;5079624;28;19978;-88
2023/01/03 18:46:18;;;;;;;;;;;;;;;;;;5077108;28;20355;-87
2023/01/03 18:48:44;;;;;;;;;;;;;;;;;;5075614;28;20003;-90
2023/01/03 18:51:17;;;;;;;;;;;;;;;;;;5076399;28;20015;-89
2023/01/03 18:53:44;;;;;;;;;;;;;;;;;;5075429;28;19972;-87
2023/01/03 18:56:29;;;;;;;;;;;;;;;;;;5077133;28;19920;-90
2023/01/03 18:58:58;;;;;;;;;;;;;;;;;;5073064;28;19916;-89
2023/01/03 19:01:24;;;;;;;;;;;;;;;;;;5074799;28;19938;-89
2023/01/03 19:03:49;;;;;;;;;;;;;;;;;;5127301;23;19930;-89
2023/01/03 19:06:16;;;;;;;;;;;;;;;;;;5015807;28;20412;-88
2023/01/03 19:08:42;;;;;;;;;;;;;;;;;;5015396;28;19918;-90
2023/01/03 19:11:12;;;;;;;;;;;;;;;;;;4998199;28;20443;-90
2023/01/03 19:13:51;;;;;;;;;;;;;;;;;;5017224;28;19953;-89
2023/01/03 19:16:25;;;;;;;;;;;;;;;;;;5016798;28;19921;-89
2023/01/03 19:18:54;;;;;;;;;;;;;;;;;;5015931;28;20024;-88
2023/01/03 19:21:20;;;;;;;;;;;;;;;;;;5016614;28;19929;-89
2023/01/03 19:23:50;;;;;;;;;;;;;;;;;;5016037;28;19924;-89
2023/01/03 19:26:29;;;;;;;;;;;;;;;;;;5015160;28;20327;-89
2023/01/03 19:29:00;;;;;;;;;;;;;;;;;;5015695;28;19918;-89
2023/01/03 19:31:27;;;;;;;;;;;;;;;;;;5015565;28;19924;-88
2023/01/03 19:33:53;;;;;;;;;;;;;;;;;;5014628;28;19924;-89
2023/01/03 19:36:19;;;;;;;;;;;;;;;;;;5014696;28;20364;-88
2023/01/03 19:38:45;;;;;;;;;;;;;;;;;;5014350;28;19921;-90
2023/01/03 19:41:20;;;;;;;;;;;;;;;;;;4998581;28;19922;-90
2023/01/03 19:43:46;;;;;;;;;;;;;;;;;;5016580;28;19925;-88
2023/01/03 19:46:13;;;;;;;;;;;;;;;;;;5014849;28;19917;-89
2023/01/03 19:48:39;;;;;;;;;;;;;;;;;;5014903;28;19925;-88
2023/01/03 19:51:05;;;;;;;;;;;;;;;;;;5015573;28;20396;-89
2023/01/03 19:53:31;;;;;;;;;;;;;;;;;;5014701;28;19917;-89